sensor_id;sensor_type;location;lat;lon;timestamp;pressure;altitude;pressure_sealevel;temperature;humidity
26775;BME280;14362;51.902;7.626;2023-05-24T00:02:45;101729.72;;;9.13;100.00
26775;BME280;14362;51.902;7.626;2023-05-24T00:06:48;101721.94;;;9.14;100.00
26775;BME280;14362;51.902;7.626;2023-05-24T00:10:49;101722.03;;;9.05;100.00
26775;BME280;14362;51.902;7.626;2023-05-24T00:14:51;101714.81;;;9.04;100.00
26775;BME280;14362;51.902;7.626;2023-05-24T00:18:52;101703.16;;;8.97;100.00
26775;BME280;14362;51.902;7.626;2023-05-24T00:22:55;101708.50;;;8.93;100.00
26775;BME280;14362;51.902;7.626;2023-05-24T00:26:57;101709.94;;;8.86;100.00
26775;BME280;14362;51.902;7.626;2023-05-24T00:30:58;101719.22;;;8.71;100.00
26775;BME280;14362;51.902;7.626;2023-05-24T00:35:00;101716.06;;;8.83;100.00
26775;BME280;14362;51.902;7.626;2023-05-24T00:39:02;101716.25;;;8.53;100.00
26775;BME280;14362;51.902;7.626;2023-05-24T00:43:04;101717.34;;;8.62;100.00
26775;BME280;14362;51.902;7.626;2023-05-24T00:47:06;101714.56;;;8.57;100.00
26775;BME280;14362;51.902;7.626;2023-05-24T00:51:08;101706.59;;;8.40;100.00
26775;BME280;14362;51.902;7.626;2023-05-24T00:55:14;101698.69;;;8.62;100.00
26775;BME280;14362;51.902;7.626;2023-05-24T00:59:16;101697.38;;;8.50;100.00
26775;BME280;14362;51.902;7.626;2023-05-24T01:03:17;101689.34;;;8.48;100.00
26775;BME280;14362;51.902;7.626;2023-05-24T01:07:23;101690.72;;;8.51;100.00
26775;BME280;14362;51.902;7.626;2023-05-24T01:11:36;101693.03;;;8.34;100.00
26775;BME280;14362;51.902;7.626;2023-05-24T01:15:47;101681.97;;;8.29;100.00
26775;BME280;14362;51.902;7.626;2023-05-24T01:19:55;101683.38;;;8.21;100.00
26775;BME280;14362;51.902;7.626;2023-05-24T01:24:07;101685.09;;;8.17;100.00
26775;BME280;14362;51.902;7.626;2023-05-24T01:28:17;101689.84;;;8.07;100.00
26775;BME280;14362;51.902;7.626;2023-05-24T01:32:18;101679.53;;;8.12;100.00
26775;BME280;14362;51.902;7.626;2023-05-24T01:36:20;101674.53;;;8.09;100.00
26775;BME280;14362;51.902;7.626;2023-05-24T01:40:21;101666.78;;;8.07;100.00
26775;BME280;14362;51.902;7.626;2023-05-24T01:44:31;101670.44;;;7.97;100.00
26775;BME280;14362;51.902;7.626;2023-05-24T01:48:39;101677.72;;;7.88;100.00
26775;BME280;14362;51.902;7.626;2023-05-24T01:52:45;101671.84;;;7.95;100.00
26775;BME280;14362;51.902;7.626;2023-05-24T01:56:47;101675.19;;;7.87;100.00
26775;BME280;14362;51.902;7.626;2023-05-24T02:00:51;101662.38;;;8.01;100.00
26775;BME280;14362;51.902;7.626;2023-05-24T02:04:53;101673.53;;;7.91;100.00
26775;BME280;14362;51.902;7.626;2023-05-24T02:08:55;101669.41;;;7.78;100.00
26775;BME280;14362;51.902;7.626;2023-05-24T02:12:59;101666.63;;;7.83;100.00
26775;BME280;14362;51.902;7.626;2023-05-24T02:17:01;101670.81;;;7.71;100.00
26775;BME280;14362;51.902;7.626;2023-05-24T02:21:03;101678.84;;;7.77;100.00
26775;BME280;14362;51.902;7.626;2023-05-24T02:25:05;101671.06;;;7.79;100.00
26775;BME280;14362;51.902;7.626;2023-05-24T02:29:07;101678.53;;;7.84;100.00
26775;BME280;14362;51.902;7.626;2023-05-24T02:33:10;101675.50;;;7.85;100.00
26775;BME280;14362;51.902;7.626;2023-05-24T02:37:11;101666.94;;;7.72;100.00
26775;BME280;14362;51.902;7.626;2023-05-24T02:41:14;101667.19;;;7.75;100.00
26775;BME280;14362;51.902;7.626;2023-05-24T02:45:17;101670.00;;;7.70;100.00
26775;BME280;14362;51.902;7.626;2023-05-24T02:49:20;101683.03;;;7.65;100.00
26775;BME280;14362;51.902;7.626;2023-05-24T02:53:21;101677.25;;;7.61;100.00
26775;BME280;14362;51.902;7.626;2023-05-24T02:57:23;101675.56;;;7.65;100.00
26775;BME280;14362;51.902;7.626;2023-05-24T03:01:24;101673.09;;;7.64;100.00
26775;BME280;14362;51.902;7.626;2023-05-24T03:05:27;101667.25;;;7.60;100.00
26775;BME280;14362;51.902;7.626;2023-05-24T03:09:28;101675.56;;;7.70;100.00
26775;BME280;14362;51.902;7.626;2023-05-24T03:13:30;101672.78;;;7.65;100.00
26775;BME280;14362;51.902;7.626;2023-05-24T03:17:31;101674.44;;;7.71;100.00
26775;BME280;14362;51.902;7.626;2023-05-24T03:21:34;101670.56;;;7.67;100.00
26775;BME280;14362;51.902;7.626;2023-05-24T03:25:36;101657.81;;;7.66;100.00
26775;BME280;14362;51.902;7.626;2023-05-24T03:29:37;101665.56;;;7.64;100.00
26775;BME280;14362;51.902;7.626;2023-05-24T03:33:39;101658.91;;;7.65;100.00
26775;BME280;14362;51.902;7.626;2023-05-24T03:37:41;101664.22;;;7.62;100.00
26775;BME280;14362;51.902;7.626;2023-05-24T03:41:43;101670.03;;;7.60;100.00
26775;BME280;14362;51.902;7.626;2023-05-24T03:45:44;101663.63;;;7.65;100.00
26775;BME280;14362;51.902;7.626;2023-05-24T03:49:46;101662.81;;;7.64;100.00
26775;BME280;14362;51.902;7.626;2023-05-24T03:53:49;101661.44;;;7.57;100.00
26775;BME280;14362;51.902;7.626;2023-05-24T03:57:50;101666.13;;;7.61;100.00
26775;BME280;14362;51.902;7.626;2023-05-24T04:01:51;101663.09;;;7.63;100.00
26775;BME280;14362;51.902;7.626;2023-05-24T04:05:53;101667.25;;;7.65;100.00
26775;BME280;14362;51.902;7.626;2023-05-24T04:09:56;101669.72;;;7.67;100.00
26775;BME280;14362;51.902;7.626;2023-05-24T04:13:58;101663.91;;;7.63;100.00
26775;BME280;14362;51.902;7.626;2023-05-24T04:18:00;101684.44;;;7.62;100.00
26775;BME280;14362;51.902;7.626;2023-05-24T04:22:02;101686.97;;;7.64;100.00
26775;BME280;14362;51.902;7.626;2023-05-24T04:26:05;101688.59;;;7.70;100.00
26775;BME280;14362;51.902;7.626;2023-05-24T04:30:10;101691.38;;;7.65;100.00
26775;BME280;14362;51.902;7.626;2023-05-24T04:34:13;101675.50;;;7.75;100.00
26775;BME280;14362;51.902;7.626;2023-05-24T04:38:14;101683.81;;;7.80;100.00
26775;BME280;14362;51.902;7.626;2023-05-24T04:42:17;101689.06;;;7.87;100.00
26775;BME280;14362;51.902;7.626;2023-05-24T04:46:19;101689.03;;;8.02;100.00
26775;BME280;14362;51.902;7.626;2023-05-24T04:50:20;101683.44;;;8.16;100.00
26775;BME280;14362;51.902;7.626;2023-05-24T04:54:22;101688.06;;;8.31;100.00
26775;BME280;14362;51.902;7.626;2023-05-24T04:58:24;101688.00;;;8.41;100.00
26775;BME280;14362;51.902;7.626;2023-05-24T05:02:26;101694.09;;;8.48;100.00
26775;BME280;14362;51.902;7.626;2023-05-24T05:06:27;101691.81;;;8.50;100.00
26775;BME280;14362;51.902;7.626;2023-05-24T05:10:29;101703.19;;;8.58;100.00
26775;BME280;14362;51.902;7.626;2023-05-24T05:14:31;101701.19;;;8.64;100.00
26775;BME280;14362;51.902;7.626;2023-05-24T05:18:33;101696.09;;;8.76;100.00
26775;BME280;14362;51.902;7.626;2023-05-24T05:22:34;101711.63;;;8.82;100.00
26775;BME280;14362;51.902;7.626;2023-05-24T05:26:36;101709.97;;;8.81;100.00
26775;BME280;14362;51.902;7.626;2023-05-24T05:30:39;101706.88;;;8.82;100.00
26775;BME280;14362;51.902;7.626;2023-05-24T05:34:40;101702.09;;;8.93;100.00
26775;BME280;14362;51.902;7.626;2023-05-24T05:38:42;101696.47;;;9.03;100.00
26775;BME280;14362;51.902;7.626;2023-05-24T05:42:43;101685.78;;;9.14;100.00
26775;BME280;14362;51.902;7.626;2023-05-24T05:46:47;101685.06;;;9.27;100.00
26775;BME280;14362;51.902;7.626;2023-05-24T05:50:49;101690.53;;;9.42;100.00
26775;BME280;14362;51.902;7.626;2023-05-24T05:54:50;101689.84;;;9.50;100.00
26775;BME280;14362;51.902;7.626;2023-05-24T05:58:52;101689.16;;;9.63;100.00
26775;BME280;14362;51.902;7.626;2023-05-24T06:02:54;101699.06;;;9.74;100.00
26775;BME280;14362;51.902;7.626;2023-05-24T06:06:56;101683.88;;;9.85;100.00
26775;BME280;14362;51.902;7.626;2023-05-24T06:10:57;101694.97;;;10.14;100.00
26775;BME280;14362;51.902;7.626;2023-05-24T06:14:59;101696.97;;;10.31;100.00
26775;BME280;14362;51.902;7.626;2023-05-24T06:19:02;101693.47;;;10.44;100.00
26775;BME280;14362;51.902;7.626;2023-05-24T06:23:03;101698.59;;;10.56;100.00
26775;BME280;14362;51.902;7.626;2023-05-24T06:27:06;101695.44;;;10.62;100.00
26775;BME280;14362;51.902;7.626;2023-05-24T06:31:07;101697.75;;;10.74;100.00
26775;BME280;14362;51.902;7.626;2023-05-24T06:35:10;101696.47;;;10.85;100.00
26775;BME280;14362;51.902;7.626;2023-05-24T06:39:12;101692.66;;;11.13;100.00
26775;BME280;14362;51.902;7.626;2023-05-24T06:43:14;101695.19;;;11.27;100.00
26775;BME280;14362;51.902;7.626;2023-05-24T06:47:16;101695.72;;;11.43;100.00
26775;BME280;14362;51.902;7.626;2023-05-24T06:51:19;101700.09;;;11.49;100.00
26775;BME280;14362;51.902;7.626;2023-05-24T06:55:21;101695.22;;;11.41;100.00
26775;BME280;14362;51.902;7.626;2023-05-24T06:59:22;101706.22;;;11.32;100.00
26775;BME280;14362;51.902;7.626;2023-05-24T07:03:24;101709.03;;;11.32;100.00
26775;BME280;14362;51.902;7.626;2023-05-24T07:07:27;101708.13;;;11.37;100.00
26775;BME280;14362;51.902;7.626;2023-05-24T07:11:28;101720.47;;;11.49;100.00
26775;BME280;14362;51.902;7.626;2023-05-24T07:15:30;101719.78;;;11.57;100.00
26775;BME280;14362;51.902;7.626;2023-05-24T07:19:31;101712.16;;;11.76;100.00
26775;BME280;14362;51.902;7.626;2023-05-24T07:23:36;101719.84;;;11.98;100.00
26775;BME280;14362;51.902;7.626;2023-05-24T07:27:37;101719.00;;;11.84;100.00
26775;BME280;14362;51.902;7.626;2023-05-24T07:31:39;101720.66;;;11.85;100.00
26775;BME280;14362;51.902;7.626;2023-05-24T07:35:40;101723.25;;;11.81;100.00
26775;BME280;14362;51.902;7.626;2023-05-24T07:39:43;101726.75;;;11.87;100.00
26775;BME280;14362;51.902;7.626;2023-05-24T07:43:45;101720.88;;;11.88;100.00
26775;BME280;14362;51.902;7.626;2023-05-24T07:47:46;101725.44;;;11.98;100.00
26775;BME280;14362;51.902;7.626;2023-05-24T07:51:48;101710.31;;;12.12;100.00
26775;BME280;14362;51.902;7.626;2023-05-24T07:55:51;101715.47;;;12.32;100.00
26775;BME280;14362;51.902;7.626;2023-05-24T07:59:52;101712.56;;;12.37;100.00
26775;BME280;14362;51.902;7.626;2023-05-24T08:03:53;101710.22;;;12.17;100.00
26775;BME280;14362;51.902;7.626;2023-05-24T08:07:55;101720.16;;;12.23;100.00
26775;BME280;14362;51.902;7.626;2023-05-24T08:11:58;101716.94;;;12.16;100.00
26775;BME280;14362;51.902;7.626;2023-05-24T08:16:00;101721.38;;;12.17;100.00
26775;BME280;14362;51.902;7.626;2023-05-24T08:20:01;101727.50;;;12.32;100.00
26775;BME280;14362;51.902;7.626;2023-05-24T08:24:05;101720.53;;;12.30;100.00
26775;BME280;14362;51.902;7.626;2023-05-24T08:28:08;101718.00;;;12.55;100.00
26775;BME280;14362;51.902;7.626;2023-05-24T08:32:10;101726.13;;;12.43;100.00
26775;BME280;14362;51.902;7.626;2023-05-24T08:36:12;101715.88;;;12.52;100.00
26775;BME280;14362;51.902;7.626;2023-05-24T08:40:13;101731.69;;;12.57;100.00
26775;BME280;14362;51.902;7.626;2023-05-24T08:44:16;101734.50;;;12.57;100.00
26775;BME280;14362;51.902;7.626;2023-05-24T08:48:19;101729.34;;;12.50;100.00
26775;BME280;14362;51.902;7.626;2023-05-24T08:52:21;101726.44;;;12.42;100.00
26775;BME280;14362;51.902;7.626;2023-05-24T08:56:24;101722.09;;;12.49;100.00
26775;BME280;14362;51.902;7.626;2023-05-24T09:00:27;101721.41;;;12.66;100.00
26775;BME280;14362;51.902;7.626;2023-05-24T09:04:29;101729.25;;;12.77;100.00
26775;BME280;14362;51.902;7.626;2023-05-24T09:08:31;101723.44;;;12.87;100.00
26775;BME280;14362;51.902;7.626;2023-05-24T09:12:36;101712.47;;;12.77;100.00
26775;BME280;14362;51.902;7.626;2023-05-24T09:16:39;101722.00;;;12.76;100.00
26775;BME280;14362;51.902;7.626;2023-05-24T09:20:40;101728.34;;;12.82;100.00
26775;BME280;14362;51.902;7.626;2023-05-24T09:24:42;101735.38;;;12.79;100.00
26775;BME280;14362;51.902;7.626;2023-05-24T09:28:45;101727.59;;;12.90;100.00
26775;BME280;14362;51.902;7.626;2023-05-24T09:32:55;101718.47;;;12.98;100.00
26775;BME280;14362;51.902;7.626;2023-05-24T09:36:57;101724.50;;;13.13;100.00
26775;BME280;14362;51.902;7.626;2023-05-24T09:41:03;101714.16;;;13.35;100.00
26775;BME280;14362;51.902;7.626;2023-05-24T09:45:06;101713.25;;;13.27;100.00
26775;BME280;14362;51.902;7.626;2023-05-24T09:49:10;101714.72;;;13.24;100.00
26775;BME280;14362;51.902;7.626;2023-05-24T09:53:11;101719.88;;;13.30;100.00
26775;BME280;14362;51.902;7.626;2023-05-24T09:57:14;101717.19;;;13.26;100.00
26775;BME280;14362;51.902;7.626;2023-05-24T10:01:16;101715.16;;;13.39;100.00
26775;BME280;14362;51.902;7.626;2023-05-24T10:05:19;101721.00;;;13.29;100.00
26775;BME280;14362;51.902;7.626;2023-05-24T10:09:21;101721.69;;;13.35;100.00
26775;BME280;14362;51.902;7.626;2023-05-24T10:13:24;101728.44;;;13.34;100.00
26775;BME280;14362;51.902;7.626;2023-05-24T10:17:26;101728.72;;;13.24;100.00
26775;BME280;14362;51.902;7.626;2023-05-24T10:21:30;101743.00;;;13.23;100.00
26775;BME280;14362;51.902;7.626;2023-05-24T10:25:33;101743.03;;;13.44;100.00
26775;BME280;14362;51.902;7.626;2023-05-24T10:29:40;101741.50;;;13.17;100.00
26775;BME280;14362;51.902;7.626;2023-05-24T10:33:45;101745.81;;;13.23;100.00
26775;BME280;14362;51.902;7.626;2023-05-24T10:37:49;101734.63;;;13.23;100.00
26775;BME280;14362;51.902;7.626;2023-05-24T10:41:54;101734.38;;;13.32;100.00
26775;BME280;14362;51.902;7.626;2023-05-24T10:45:56;101737.63;;;13.48;100.00
26775;BME280;14362;51.902;7.626;2023-05-24T10:49:58;101733.00;;;13.74;100.00
26775;BME280;14362;51.902;7.626;2023-05-24T10:54:12;101732.69;;;13.75;100.00
26775;BME280;14362;51.902;7.626;2023-05-24T10:58:14;101733.84;;;13.52;100.00
26775;BME280;14362;51.902;7.626;2023-05-24T11:02:18;101728.25;;;13.52;100.00
26775;BME280;14362;51.902;7.626;2023-05-24T11:06:46;101731.50;;;13.46;100.00
26775;BME280;14362;51.902;7.626;2023-05-24T11:10:49;101728.09;;;13.27;100.00
26775;BME280;14362;51.902;7.626;2023-05-24T11:14:52;101737.19;;;13.32;100.00
26775;BME280;14362;51.902;7.626;2023-05-24T11:18:54;101733.22;;;13.33;100.00
26775;BME280;14362;51.902;7.626;2023-05-24T11:22:56;101726.16;;;13.58;100.00
26775;BME280;14362;51.902;7.626;2023-05-24T11:27:00;101731.06;;;13.52;100.00
26775;BME280;14362;51.902;7.626;2023-05-24T11:31:07;101723.81;;;13.51;100.00
26775;BME280;14362;51.902;7.626;2023-05-24T11:35:08;101723.34;;;13.58;100.00
26775;BME280;14362;51.902;7.626;2023-05-24T11:39:11;101721.44;;;13.67;100.00
26775;BME280;14362;51.902;7.626;2023-05-24T11:43:16;101719.88;;;13.83;100.00
26775;BME280;14362;51.902;7.626;2023-05-24T11:47:19;101721.13;;;14.07;100.00
26775;BME280;14362;51.902;7.626;2023-05-24T11:51:24;101717.09;;;14.22;100.00
26775;BME280;14362;51.902;7.626;2023-05-24T11:55:26;101711.69;;;14.42;100.00
26775;BME280;14362;51.902;7.626;2023-05-24T11:59:29;101710.88;;;14.41;100.00
26775;BME280;14362;51.902;7.626;2023-05-24T12:03:31;101718.28;;;14.37;100.00
26775;BME280;14362;51.902;7.626;2023-05-24T12:07:35;101712.00;;;14.32;100.00
26775;BME280;14362;51.902;7.626;2023-05-24T12:11:37;101718.72;;;14.14;100.00
26775;BME280;14362;51.902;7.626;2023-05-24T12:15:41;101716.00;;;14.01;100.00
26775;BME280;14362;51.902;7.626;2023-05-24T12:19:42;101725.50;;;13.91;100.00
26775;BME280;14362;51.902;7.626;2023-05-24T12:23:46;101723.34;;;13.88;100.00
26775;BME280;14362;51.902;7.626;2023-05-24T12:27:51;101715.47;;;13.99;100.00
26775;BME280;14362;51.902;7.626;2023-05-24T12:31:56;101722.06;;;13.94;100.00
26775;BME280;14362;51.902;7.626;2023-05-24T12:35:57;101717.09;;;13.91;100.00
26775;BME280;14362;51.902;7.626;2023-05-24T12:39:59;101724.03;;;13.94;100.00
26775;BME280;14362;51.902;7.626;2023-05-24T12:44:01;101728.09;;;13.88;100.00
26775;BME280;14362;51.902;7.626;2023-05-24T12:48:04;101727.94;;;13.84;100.00
26775;BME280;14362;51.902;7.626;2023-05-24T12:52:05;101719.03;;;13.82;100.00
26775;BME280;14362;51.902;7.626;2023-05-24T12:56:07;101721.19;;;13.85;100.00
26775;BME280;14362;51.902;7.626;2023-05-24T13:00:10;101719.59;;;14.01;100.00
26775;BME280;14362;51.902;7.626;2023-05-24T13:04:13;101729.25;;;14.17;100.00
26775;BME280;14362;51.902;7.626;2023-05-24T13:08:14;101722.00;;;14.16;100.00
26775;BME280;14362;51.902;7.626;2023-05-24T13:12:16;101730.13;;;14.26;100.00
26775;BME280;14362;51.902;7.626;2023-05-24T13:16:17;101728.00;;;14.32;100.00
26775;BME280;14362;51.902;7.626;2023-05-24T13:20:20;101731.19;;;14.47;100.00
26775;BME280;14362;51.902;7.626;2023-05-24T13:24:23;101736.56;;;14.27;100.00
26775;BME280;14362;51.902;7.626;2023-05-24T13:28:24;101721.91;;;14.38;100.00
26775;BME280;14362;51.902;7.626;2023-05-24T13:32:26;101724.59;;;14.51;100.00
26775;BME280;14362;51.902;7.626;2023-05-24T13:36:28;101720.50;;;14.57;100.00
26775;BME280;14362;51.902;7.626;2023-05-24T13:40:30;101718.50;;;14.58;100.00
26775;BME280;14362;51.902;7.626;2023-05-24T13:44:32;101717.69;;;14.57;100.00
26775;BME280;14362;51.902;7.626;2023-05-24T13:48:33;101723.59;;;14.56;100.00
26775;BME280;14362;51.902;7.626;2023-05-24T13:52:36;101704.16;;;14.76;100.00
26775;BME280;14362;51.902;7.626;2023-05-24T13:56:38;101718.00;;;14.56;100.00
26775;BME280;14362;51.902;7.626;2023-05-24T14:00:41;101701.69;;;14.83;100.00
26775;BME280;14362;51.902;7.626;2023-05-24T14:04:43;101705.47;;;15.21;100.00
26775;BME280;14362;51.902;7.626;2023-05-24T14:08:45;101692.63;;;15.37;100.00
26775;BME280;14362;51.902;7.626;2023-05-24T14:12:47;101704.25;;;15.73;100.00
26775;BME280;14362;51.902;7.626;2023-05-24T14:16:48;101708.47;;;15.96;100.00
26775;BME280;14362;51.902;7.626;2023-05-24T14:20:53;101700.56;;;15.89;100.00
26775;BME280;14362;51.902;7.626;2023-05-24T14:24:56;101701.78;;;15.71;98.43
26775;BME280;14362;51.902;7.626;2023-05-24T14:28:58;101697.31;;;15.70;95.98
26775;BME280;14362;51.902;7.626;2023-05-24T14:33:00;101699.97;;;15.67;100.00
26775;BME280;14362;51.902;7.626;2023-05-24T14:37:02;101709.44;;;15.54;97.18
26775;BME280;14362;51.902;7.626;2023-05-24T14:41:04;101700.19;;;15.45;100.00
26775;BME280;14362;51.902;7.626;2023-05-24T14:45:07;101698.03;;;15.50;100.00
26775;BME280;14362;51.902;7.626;2023-05-24T14:49:08;101701.16;;;15.57;98.01
26775;BME280;14362;51.902;7.626;2023-05-24T14:53:10;101688.78;;;15.50;98.25
26775;BME280;14362;51.902;7.626;2023-05-24T14:57:13;101695.88;;;15.56;100.00
26775;BME280;14362;51.902;7.626;2023-05-24T15:01:14;101702.69;;;15.46;95.59
26775;BME280;14362;51.902;7.626;2023-05-24T15:05:16;101695.50;;;15.66;94.09
26775;BME280;14362;51.902;7.626;2023-05-24T15:09:17;101695.84;;;15.73;91.07
26775;BME280;14362;51.902;7.626;2023-05-24T15:13:20;101694.19;;;15.72;94.51
26775;BME280;14362;51.902;7.626;2023-05-24T15:17:22;101680.91;;;15.81;98.32
26775;BME280;14362;51.902;7.626;2023-05-24T15:21:23;101677.53;;;15.96;94.73
26775;BME280;14362;51.902;7.626;2023-05-24T15:25:24;101694.16;;;15.80;94.09
26775;BME280;14362;51.902;7.626;2023-05-24T15:29:27;101691.88;;;15.74;94.24
26775;BME280;14362;51.902;7.626;2023-05-24T15:33:29;101686.88;;;15.79;99.10
26775;BME280;14362;51.902;7.626;2023-05-24T15:37:31;101682.06;;;15.80;100.00
26775;BME280;14362;51.902;7.626;2023-05-24T15:41:33;101691.47;;;15.84;97.43
26775;BME280;14362;51.902;7.626;2023-05-24T15:45:37;101690.19;;;15.81;94.92
26775;BME280;14362;51.902;7.626;2023-05-24T15:49:39;101694.16;;;15.80;96.14
26775;BME280;14362;51.902;7.626;2023-05-24T15:53:40;101686.84;;;15.88;93.33
26775;BME280;14362;51.902;7.626;2023-05-24T15:57:42;101686.56;;;15.72;94.33
26775;BME280;14362;51.902;7.626;2023-05-24T16:01:45;101687.38;;;15.81;100.00
26775;BME280;14362;51.902;7.626;2023-05-24T16:05:46;101694.50;;;15.70;97.05
26775;BME280;14362;51.902;7.626;2023-05-24T16:09:48;101689.69;;;15.79;92.70
26775;BME280;14362;51.902;7.626;2023-05-24T16:13:50;101690.53;;;15.71;99.34
26775;BME280;14362;51.902;7.626;2023-05-24T16:17:53;101699.13;;;15.66;100.00
26775;BME280;14362;51.902;7.626;2023-05-24T16:21:55;101696.69;;;15.56;100.00
26775;BME280;14362;51.902;7.626;2023-05-24T16:25:57;101691.44;;;15.46;100.00
26775;BME280;14362;51.902;7.626;2023-05-24T16:29:58;101688.97;;;15.37;100.00
26775;BME280;14362;51.902;7.626;2023-05-24T16:34:01;101684.22;;;15.29;100.00
26775;BME280;14362;51.902;7.626;2023-05-24T16:38:02;101688.31;;;15.23;100.00
26775;BME280;14362;51.902;7.626;2023-05-24T16:42:04;101685.50;;;15.23;100.00
26775;BME280;14362;51.902;7.626;2023-05-24T16:46:07;101677.72;;;15.20;100.00
26775;BME280;14362;51.902;7.626;2023-05-24T16:50:11;101678.72;;;15.15;100.00
26775;BME280;14362;51.902;7.626;2023-05-24T16:54:14;101670.28;;;15.24;100.00
26775;BME280;14362;51.902;7.626;2023-05-24T16:58:16;101669.13;;;15.25;100.00
26775;BME280;14362;51.902;7.626;2023-05-24T17:02:17;101664.31;;;15.25;100.00
26775;BME280;14362;51.902;7.626;2023-05-24T17:06:20;101669.31;;;15.28;100.00
26775;BME280;14362;51.902;7.626;2023-05-24T17:10:22;101674.44;;;15.26;100.00
26775;BME280;14362;51.902;7.626;2023-05-24T17:14:23;101674.28;;;15.31;100.00
26775;BME280;14362;51.902;7.626;2023-05-24T17:18:25;101680.53;;;15.37;100.00
26775;BME280;14362;51.902;7.626;2023-05-24T17:22:30;101678.59;;;15.29;100.00
26775;BME280;14362;51.902;7.626;2023-05-24T17:26:32;101675.06;;;15.23;100.00
26775;BME280;14362;51.902;7.626;2023-05-24T17:30:34;101667.47;;;15.24;100.00
26775;BME280;14362;51.902;7.626;2023-05-24T17:34:35;101671.09;;;15.24;100.00
26775;BME280;14362;51.902;7.626;2023-05-24T17:38:38;101675.78;;;15.29;100.00
26775;BME280;14362;51.902;7.626;2023-05-24T17:42:40;101671.47;;;15.31;100.00
26775;BME280;14362;51.902;7.626;2023-05-24T17:46:42;101679.22;;;15.42;100.00
26775;BME280;14362;51.902;7.626;2023-05-24T17:50:43;101670.59;;;15.39;100.00
26775;BME280;14362;51.902;7.626;2023-05-24T17:54:46;101679.88;;;15.39;100.00
26775;BME280;14362;51.902;7.626;2023-05-24T17:58:48;101677.38;;;15.38;100.00
26775;BME280;14362;51.902;7.626;2023-05-24T18:02:50;101680.22;;;15.46;100.00
26775;BME280;14362;51.902;7.626;2023-05-24T18:06:51;101684.13;;;15.62;100.00
26775;BME280;14362;51.902;7.626;2023-05-24T18:10:55;101686.09;;;15.62;100.00
26775;BME280;14362;51.902;7.626;2023-05-24T18:14:56;101693.72;;;15.61;100.00
26775;BME280;14362;51.902;7.626;2023-05-24T18:18:58;101685.97;;;15.50;100.00
26775;BME280;14362;51.902;7.626;2023-05-24T18:22:59;101685.66;;;15.43;100.00
26775;BME280;14362;51.902;7.626;2023-05-24T18:27:02;101694.94;;;15.35;100.00
26775;BME280;14362;51.902;7.626;2023-05-24T18:31:04;101703.38;;;15.27;100.00
26775;BME280;14362;51.902;7.626;2023-05-24T18:35:08;101694.75;;;15.15;100.00
26775;BME280;14362;51.902;7.626;2023-05-24T18:39:09;101710.44;;;15.07;100.00
26775;BME280;14362;51.902;7.626;2023-05-24T18:43:12;101704.81;;;15.16;100.00
26775;BME280;14362;51.902;7.626;2023-05-24T18:47:14;101712.44;;;14.98;100.00
26775;BME280;14362;51.902;7.626;2023-05-24T18:51:15;101719.38;;;14.92;100.00
26775;BME280;14362;51.902;7.626;2023-05-24T18:55:17;101719.38;;;14.84;100.00
26775;BME280;14362;51.902;7.626;2023-05-24T18:59:20;101720.38;;;14.88;100.00
26775;BME280;14362;51.902;7.626;2023-05-24T19:03:27;101714.56;;;14.76;100.00
26775;BME280;14362;51.902;7.626;2023-05-24T19:07:29;101720.16;;;14.76;100.00
26775;BME280;14362;51.902;7.626;2023-05-24T19:11:30;101727.44;;;14.68;100.00
26775;BME280;14362;51.902;7.626;2023-05-24T19:15:34;101729.56;;;14.63;100.00
26775;BME280;14362;51.902;7.626;2023-05-24T19:19:36;101734.81;;;14.56;100.00
26775;BME280;14362;51.902;7.626;2023-05-24T19:23:37;101741.13;;;14.53;100.00
26775;BME280;14362;51.902;7.626;2023-05-24T19:27:41;101735.44;;;14.44;100.00
26775;BME280;14362;51.902;7.626;2023-05-24T19:31:44;101743.69;;;14.41;100.00
26775;BME280;14362;51.902;7.626;2023-05-24T19:35:47;101742.88;;;14.32;100.00
26775;BME280;14362;51.902;7.626;2023-05-24T19:39:50;101744.63;;;14.20;100.00
26775;BME280;14362;51.902;7.626;2023-05-24T19:43:53;101743.63;;;14.16;100.00
26775;BME280;14362;51.902;7.626;2023-05-24T19:47:56;101751.47;;;14.05;100.00
26775;BME280;14362;51.902;7.626;2023-05-24T19:51:57;101755.88;;;13.98;100.00
26775;BME280;14362;51.902;7.626;2023-05-24T19:55:58;101759.28;;;13.86;100.00
26775;BME280;14362;51.902;7.626;2023-05-24T20:00:02;101769.47;;;13.82;100.00
26775;BME280;14362;51.902;7.626;2023-05-24T20:04:05;101763.06;;;13.82;100.00
26775;BME280;14362;51.902;7.626;2023-05-24T20:08:06;101774.34;;;13.68;100.00
26775;BME280;14362;51.902;7.626;2023-05-24T20:12:08;101784.34;;;13.61;100.00
26775;BME280;14362;51.902;7.626;2023-05-24T20:16:10;101789.88;;;13.52;100.00
26775;BME280;14362;51.902;7.626;2023-05-24T20:20:13;101797.38;;;13.43;100.00
26775;BME280;14362;51.902;7.626;2023-05-24T20:24:15;101796.69;;;13.38;100.00
26775;BME280;14362;51.902;7.626;2023-05-24T20:28:16;101794.97;;;13.28;100.00
26775;BME280;14362;51.902;7.626;2023-05-24T20:32:17;101801.59;;;13.32;100.00
26775;BME280;14362;51.902;7.626;2023-05-24T20:36:20;101803.69;;;13.27;100.00
26775;BME280;14362;51.902;7.626;2023-05-24T20:40:22;101812.38;;;13.26;100.00
26775;BME280;14362;51.902;7.626;2023-05-24T20:44:24;101818.19;;;13.29;100.00
26775;BME280;14362;51.902;7.626;2023-05-24T20:48:25;101803.34;;;13.28;100.00
26775;BME280;14362;51.902;7.626;2023-05-24T20:52:28;101812.19;;;13.22;100.00
26775;BME280;14362;51.902;7.626;2023-05-24T20:56:29;101817.41;;;13.15;100.00